createdAt,value
2023-03-06T00:00:53.119Z,84.4
2023-03-06T00:01:53.103Z,84.3
2023-03-06T00:02:53.148Z,84.5
2023-03-06T00:03:53.213Z,84.6
2023-03-06T00:04:53.131Z,84.8
2023-03-06T00:05:53.279Z,84.8
2023-03-06T00:06:53.173Z,84.9
2023-03-06T00:07:53.186Z,85.0
2023-03-06T00:08:53.187Z,85.0
2023-03-06T00:09:53.203Z,84.9
2023-03-06T00:10:53.220Z,84.9
2023-03-06T00:11:53.229Z,85.0
2023-03-06T00:12:53.253Z,84.9
2023-03-06T00:13:53.301Z,85.0
2023-03-06T00:14:53.275Z,85.1
2023-03-06T00:15:53.506Z,85.0
2023-03-06T00:16:53.324Z,85.3
2023-03-06T00:17:53.329Z,85.2
2023-03-06T00:18:53.350Z,85.3
2023-03-06T00:19:53.359Z,85.4
2023-03-06T00:20:53.390Z,85.4
2023-03-06T00:21:53.394Z,85.4
2023-03-06T00:22:53.420Z,85.4
2023-03-06T00:23:53.432Z,85.4
2023-03-06T00:24:53.445Z,85.4
2023-03-06T00:25:53.462Z,85.5
2023-03-06T00:26:53.487Z,85.5
2023-03-06T00:27:53.642Z,85.6
2023-03-06T00:28:53.512Z,85.5
2023-03-06T00:29:53.488Z,85.8
2023-03-06T00:30:53.532Z,85.8
2023-03-06T00:31:53.535Z,85.8
2023-03-06T00:32:53.562Z,85.8
2023-03-06T00:33:53.564Z,85.9
2023-03-06T00:34:53.581Z,85.9
2023-03-06T00:35:53.726Z,86.0
2023-03-06T00:36:53.574Z,86.0
2023-03-06T00:37:53.571Z,86.1
2023-03-06T00:38:53.622Z,86.2
2023-03-06T00:39:53.620Z,86.2
2023-03-06T00:40:53.633Z,86.2
2023-03-06T00:41:53.664Z,86.2
2023-03-06T00:42:53.717Z,86.2
2023-03-06T00:43:53.660Z,86.2
2023-03-06T00:44:53.691Z,86.3
2023-03-06T00:45:53.793Z,86.5
2023-03-06T00:46:53.693Z,86.5
2023-03-06T00:47:53.772Z,86.6
2023-03-06T00:48:53.709Z,86.5
2023-03-06T00:49:53.725Z,86.5
2023-03-06T00:50:53.726Z,86.6
2023-03-06T00:51:53.752Z,86.6
2023-03-06T00:52:53.828Z,86.6
2023-03-06T00:53:53.784Z,86.7
2023-03-06T00:54:53.801Z,86.8
2023-03-06T00:55:53.843Z,86.7
2023-03-06T00:56:53.841Z,86.8
2023-03-06T00:57:53.839Z,86.8
2023-03-06T00:58:53.862Z,86.7
2023-03-06T00:59:53.893Z,86.8
2023-03-06T01:00:53.997Z,86.9
2023-03-06T01:01:54.021Z,86.8
2023-03-06T01:02:53.999Z,86.8
2023-03-06T01:03:53.915Z,86.9
2023-03-06T01:04:53.949Z,86.9
2023-03-06T01:05:53.947Z,87.0
2023-03-06T01:06:53.959Z,87.0
2023-03-06T01:07:53.997Z,87.0
2023-03-06T01:08:53.972Z,87.1
2023-03-06T01:09:53.991Z,87.1
2023-03-06T01:10:53.993Z,87.1
2023-03-06T01:11:54.034Z,87.1
2023-03-06T01:12:54.034Z,86.9
2023-03-06T01:13:54.044Z,86.9
2023-03-06T01:14:54.061Z,87.0
2023-03-06T01:15:54.077Z,87.0
2023-03-06T01:16:54.076Z,87.1
2023-03-06T01:34:54.563Z,87.0
2023-03-06T01:35:54.569Z,87.1
2023-03-06T01:36:54.372Z,87.2
2023-03-06T01:37:54.357Z,87.2
2023-03-06T01:38:54.382Z,87.3
2023-03-06T01:39:54.394Z,87.3
2023-03-06T01:40:54.404Z,87.4
2023-03-06T01:41:54.432Z,87.5
2023-03-06T01:42:54.445Z,87.6
2023-03-06T01:43:54.441Z,87.7
2023-03-06T01:44:54.441Z,87.8
2023-03-06T01:45:54.547Z,87.9
2023-03-06T01:46:54.456Z,88.0
2023-03-06T01:47:54.496Z,88.0
2023-03-06T01:48:54.467Z,87.9
2023-03-06T01:49:54.476Z,87.5
2023-03-06T01:50:54.496Z,87.4
2023-03-06T01:51:54.501Z,87.7
2023-03-06T01:52:54.508Z,87.7
2023-03-06T01:53:54.505Z,87.7
2023-03-06T01:54:54.539Z,87.5
2023-03-06T01:55:54.519Z,87.2
2023-03-06T01:56:54.569Z,87.2
2023-03-06T01:57:54.524Z,87.3
2023-03-06T01:58:54.540Z,87.2
2023-03-06T01:59:54.541Z,87.2
2023-03-06T02:00:54.669Z,87.3
2023-03-06T02:01:54.724Z,87.4
2023-03-06T02:02:54.578Z,87.4
2023-03-06T02:03:54.588Z,87.5
2023-03-06T02:04:54.577Z,87.4
2023-03-06T02:05:54.579Z,87.4
2023-03-06T02:06:54.585Z,87.4
2023-03-06T02:07:54.614Z,87.3
2023-03-06T02:08:54.599Z,87.2
2023-03-06T02:09:54.632Z,87.2
2023-03-06T02:10:54.617Z,87.3
2023-03-06T02:11:54.626Z,87.4
2023-03-06T02:12:54.627Z,87.3
2023-03-06T02:13:54.636Z,87.3
2023-03-06T02:14:54.680Z,87.5
2023-03-06T02:15:54.672Z,87.4
2023-03-06T02:16:54.760Z,87.5
2023-03-06T02:17:54.706Z,87.2
2023-03-06T02:18:54.702Z,87.3
2023-03-06T02:19:54.696Z,87.4
2023-03-06T02:20:54.698Z,87.4
2023-03-06T02:21:54.714Z,87.4
2023-03-06T02:22:54.742Z,87.6
2023-03-06T02:23:54.729Z,87.7
2023-03-06T02:24:54.739Z,87.7
2023-03-06T02:25:54.746Z,87.5
2023-03-06T02:26:54.788Z,87.5
2023-03-06T02:27:54.772Z,87.6
2023-03-06T02:28:54.762Z,87.6
2023-03-06T02:29:54.775Z,87.6
2023-03-06T02:30:55.089Z,87.9
2023-03-06T02:31:54.824Z,88.1
2023-03-06T02:32:54.822Z,88.1
2023-03-06T02:33:54.804Z,88.1
2023-03-06T02:34:54.831Z,88.2
2023-03-06T02:35:55.057Z,88.0
2023-03-06T02:36:54.832Z,88.0
2023-03-06T02:37:54.843Z,87.9
2023-03-06T02:38:54.839Z,87.9
2023-03-06T02:39:54.872Z,87.9
2023-03-06T02:40:54.862Z,87.9
2023-03-06T02:41:54.874Z,87.8
2023-03-06T02:42:54.875Z,88.0
2023-03-06T02:43:54.876Z,88.2
2023-03-06T02:44:54.909Z,88.3
2023-03-06T02:45:55.046Z,88.4
2023-03-06T02:46:54.885Z,88.5
2023-03-06T02:47:54.896Z,88.6
2023-03-06T02:48:54.910Z,88.7
2023-03-06T02:49:54.914Z,88.6
2023-03-06T02:50:54.917Z,88.6
2023-03-06T02:51:55.020Z,88.6
2023-03-06T02:52:54.948Z,88.6
2023-03-06T02:53:54.953Z,88.4
2023-03-06T02:54:54.963Z,88.1
2023-03-06T02:55:54.953Z,87.8
2023-03-06T02:56:54.964Z,87.8
2023-03-06T02:57:54.975Z,87.8
2023-03-06T02:58:54.966Z,87.9
2023-03-06T02:59:54.987Z,87.9
2023-03-06T03:00:55.020Z,87.8
2023-03-06T03:01:55.011Z,87.6
2023-03-06T03:02:55.041Z,87.5
2023-03-06T03:03:55.005Z,87.5
2023-03-06T03:04:55.310Z,87.5
2023-03-06T03:05:55.019Z,87.3
2023-03-06T03:06:55.026Z,87.3
2023-03-06T03:07:55.077Z,87.2
2023-03-06T03:08:55.034Z,86.8
2023-03-06T03:09:55.059Z,86.6
2023-03-06T03:10:55.078Z,86.7
2023-03-06T03:11:55.072Z,86.7
2023-03-06T03:12:55.065Z,86.6
2023-03-06T03:13:55.086Z,86.4
2023-03-06T03:14:55.087Z,86.5
2023-03-06T03:15:55.219Z,86.8
2023-03-06T03:16:55.089Z,86.8
2023-03-06T03:17:55.088Z,86.8
2023-03-06T03:18:55.098Z,86.8
2023-03-06T03:19:55.094Z,86.8
2023-03-06T03:20:55.121Z,86.8
2023-03-06T03:21:55.120Z,86.9
2023-03-06T03:22:55.313Z,87.0
2023-03-06T03:23:55.148Z,87.1
2023-03-06T03:24:55.286Z,87.0
2023-03-06T03:25:55.141Z,86.9
2023-03-06T03:26:55.184Z,86.8
2023-03-06T03:27:55.152Z,86.7
2023-03-06T03:28:55.160Z,86.8
2023-03-06T03:29:55.165Z,86.8
2023-03-06T03:30:55.275Z,86.8
2023-03-06T03:31:55.192Z,86.9
2023-03-06T03:32:55.210Z,86.8
2023-03-06T03:33:55.214Z,86.8
2023-03-06T03:34:55.213Z,86.8
2023-03-06T03:35:55.332Z,86.9
2023-03-06T03:36:55.227Z,87.2
2023-03-06T03:37:55.331Z,87.2
2023-03-06T03:38:55.234Z,87.3
2023-03-06T03:39:55.234Z,87.3
2023-03-06T03:40:55.258Z,87.3
2023-03-06T03:41:55.278Z,87.4
2023-03-06T03:42:55.264Z,87.5
2023-03-06T03:43:55.282Z,87.4
2023-03-06T03:44:55.278Z,87.5
2023-03-06T03:45:55.299Z,87.9
2023-03-06T03:46:55.288Z,88.0
2023-03-06T03:47:55.319Z,88.0
2023-03-06T03:48:55.298Z,87.9
2023-03-06T03:49:55.360Z,88.1
2023-03-06T03:50:55.324Z,88.0
2023-03-06T03:51:55.336Z,88.1
2023-03-06T03:52:55.339Z,88.1
2023-03-06T03:53:55.334Z,88.2
2023-03-06T03:54:55.348Z,88.3
2023-03-06T03:55:55.344Z,88.6
2023-03-06T03:56:55.348Z,88.5
2023-03-06T03:57:55.354Z,88.7
2023-03-06T03:58:55.357Z,88.8
2023-03-06T03:59:55.366Z,88.8
2023-03-06T04:00:55.374Z,88.9
2023-03-06T04:01:55.452Z,89.3
2023-03-06T04:02:55.389Z,89.0
2023-03-06T04:03:55.388Z,88.9
2023-03-06T04:04:55.581Z,88.8
2023-03-06T04:05:55.414Z,88.8
2023-03-06T04:06:55.437Z,89.0
2023-03-06T04:07:55.425Z,89.1
2023-03-06T04:08:55.450Z,89.2
2023-03-06T04:09:55.425Z,89.2
2023-03-06T04:10:55.465Z,89.1
2023-03-06T04:11:55.468Z,89.1
2023-03-06T04:12:55.463Z,89.1
2023-03-06T04:13:55.460Z,89.0
2023-03-06T04:14:55.477Z,89.1
2023-03-06T04:15:55.615Z,89.0
2023-03-06T04:16:55.471Z,89.7
2023-03-06T04:17:55.492Z,89.5
2023-03-06T04:18:55.481Z,89.7
2023-03-06T04:19:55.483Z,89.5
2023-03-06T04:20:55.491Z,89.6
2023-03-06T04:21:55.535Z,89.6
2023-03-06T04:22:55.506Z,90.1
2023-03-06T04:23:55.514Z,90.0
2023-03-06T04:24:55.528Z,90.0
2023-03-06T04:25:55.535Z,89.7
2023-03-06T04:26:55.530Z,90.2
2023-03-06T04:27:55.529Z,89.9
2023-03-06T04:28:55.559Z,89.9
2023-03-06T04:29:55.546Z,90.0
2023-03-06T04:30:55.553Z,89.9
2023-03-06T04:31:55.556Z,90.0
2023-03-06T04:32:55.571Z,89.9
2023-03-06T04:33:55.583Z,90.0
2023-03-06T04:34:55.587Z,90.3
2023-03-06T04:35:55.756Z,90.0
2023-03-06T04:36:55.592Z,90.2
2023-03-06T04:37:55.597Z,90.2
2023-03-06T04:38:55.706Z,90.4
2023-03-06T04:39:55.612Z,90.3
2023-03-06T04:40:56.020Z,90.3
2023-03-06T04:41:55.667Z,90.4
2023-03-06T04:42:55.624Z,90.3
2023-03-06T04:43:55.653Z,90.4
2023-03-06T04:44:55.668Z,90.3
2023-03-06T04:45:55.931Z,90.1
2023-03-06T04:46:55.659Z,90.1
2023-03-06T04:47:55.665Z,90.4
2023-03-06T04:48:55.674Z,90.1
2023-03-06T04:49:55.665Z,90.5
2023-03-06T04:50:55.687Z,90.3
2023-03-06T04:51:55.683Z,90.3
2023-03-06T04:52:55.706Z,90.1
2023-03-06T04:53:55.706Z,90.1
2023-03-06T04:54:55.717Z,90.0
2023-03-06T04:55:55.720Z,90.0
2023-03-06T04:56:55.729Z,90.0
2023-03-06T04:57:55.744Z,90.0
2023-03-06T04:58:55.772Z,90.1
2023-03-06T04:59:55.780Z,90.4
2023-03-06T05:00:55.907Z,90.2
2023-03-06T05:01:55.971Z,90.2
2023-03-06T05:02:55.773Z,90.3
2023-03-06T05:03:55.778Z,90.2
2023-03-06T05:04:56.051Z,90.3
2023-03-06T05:05:55.825Z,90.0
2023-03-06T05:06:55.792Z,90.4
2023-03-06T05:07:55.818Z,90.4
2023-03-06T05:08:55.809Z,90.1
2023-03-06T05:09:55.809Z,90.1
2023-03-06T05:10:55.815Z,90.2
2023-03-06T05:11:55.832Z,90.3
2023-03-06T05:12:55.857Z,90.5
2023-03-06T05:13:55.858Z,90.5
2023-03-06T05:14:55.846Z,90.3
2023-03-06T05:15:55.855Z,90.1
2023-03-06T05:16:55.863Z,90.3
2023-03-06T05:17:55.864Z,90.2
2023-03-06T05:18:55.872Z,90.2
2023-03-06T05:19:55.875Z,90.2
2023-03-06T05:20:55.885Z,90.4
2023-03-06T05:21:55.893Z,90.3
2023-03-06T05:22:55.883Z,90.6
2023-03-06T05:23:56.026Z,90.4
2023-03-06T05:24:55.919Z,90.7
2023-03-06T05:25:55.919Z,90.6
2023-03-06T05:26:55.922Z,91.1
2023-03-06T05:27:55.923Z,91.0
2023-03-06T05:28:55.955Z,90.9
2023-03-06T05:29:55.935Z,90.8
2023-03-06T05:30:55.969Z,91.0
2023-03-06T05:31:56.319Z,90.5
2023-03-06T05:32:55.968Z,90.7
2023-03-06T05:33:55.966Z,91.0
2023-03-06T05:34:55.968Z,90.7
2023-03-06T05:35:56.100Z,90.7
2023-03-06T05:36:55.993Z,90.7
2023-03-06T05:37:56.000Z,90.9
2023-03-06T05:38:56.018Z,90.9
2023-03-06T05:39:56.018Z,90.9
2023-03-06T05:40:56.030Z,90.8
2023-03-06T05:41:56.023Z,90.7
2023-03-06T05:42:56.066Z,90.7
2023-03-06T05:43:56.051Z,90.6
2023-03-06T05:44:56.087Z,90.7
2023-03-06T05:45:56.125Z,90.6
2023-03-06T05:46:56.090Z,90.6
2023-03-06T05:47:56.091Z,90.6
2023-03-06T05:48:56.102Z,90.6
2023-03-06T05:49:56.105Z,90.6
2023-03-06T05:50:56.112Z,90.8
2023-03-06T05:51:56.146Z,90.8
2023-03-06T05:52:56.127Z,91.1
2023-03-06T05:53:56.146Z,90.8
2023-03-06T05:54:56.147Z,90.7
2023-03-06T05:55:56.164Z,90.8
2023-03-06T05:56:56.166Z,90.9
2023-03-06T05:57:56.191Z,90.9
2023-03-06T05:58:56.190Z,90.7
2023-03-06T05:59:56.198Z,90.9
2023-03-06T06:00:56.202Z,90.8
2023-03-06T06:01:56.230Z,91.0
2023-03-06T06:02:56.216Z,91.3
2023-03-06T06:03:56.213Z,91.1
2023-03-06T06:04:56.301Z,91.0
2023-03-06T06:05:56.210Z,91.2
2023-03-06T06:06:56.250Z,91.1
2023-03-06T06:07:56.234Z,91.1
2023-03-06T06:08:56.235Z,91.1
2023-03-06T06:09:56.264Z,91.1
2023-03-06T06:10:56.264Z,91.3
2023-03-06T06:11:56.282Z,91.2
2023-03-06T06:12:56.267Z,91.3
2023-03-06T06:13:56.268Z,91.3
2023-03-06T06:14:56.277Z,91.3
2023-03-06T06:15:56.356Z,91.3
2023-03-06T06:16:56.299Z,91.5
2023-03-06T06:17:56.311Z,91.7
2023-03-06T06:18:56.332Z,92.0
2023-03-06T06:19:56.318Z,92.2
2023-03-06T06:20:56.329Z,92.2
2023-03-06T06:21:56.327Z,92.3
2023-03-06T06:22:56.341Z,92.3
2023-03-06T06:23:56.343Z,92.2
2023-03-06T06:24:56.352Z,92.1
2023-03-06T06:25:56.353Z,91.9
2023-03-06T06:26:56.364Z,91.7
2023-03-06T06:27:56.375Z,91.5
2023-03-06T06:29:00.379Z,91.6
2023-03-06T06:29:56.366Z,91.5
2023-03-06T06:30:56.514Z,91.4
2023-03-06T06:31:56.383Z,91.4
2023-03-06T06:32:56.393Z,91.2
2023-03-06T06:33:56.395Z,91.0
2023-03-06T06:34:56.394Z,91.0
2023-03-06T06:35:56.574Z,91.0
2023-03-06T06:36:56.424Z,90.9
2023-03-06T06:37:56.422Z,90.9
2023-03-06T06:38:56.430Z,90.7
2023-03-06T06:39:56.443Z,90.6
2023-03-06T06:41:39.155Z,90.7
2023-03-06T06:42:30.402Z,90.7
2023-03-06T06:42:56.450Z,90.6
2023-03-06T06:43:59.329Z,90.6
2023-03-06T06:44:56.471Z,90.6
2023-03-06T06:46:49.904Z,90.7
2023-03-06T06:47:25.268Z,90.7
2023-03-06T06:47:56.689Z,90.7
2023-03-06T06:48:56.530Z,90.6
2023-03-06T06:49:56.573Z,90.5
2023-03-06T06:50:56.764Z,90.4
2023-03-06T06:51:56.538Z,90.3
2023-03-06T06:52:56.537Z,90.3
2023-03-06T06:53:56.542Z,90.2
2023-03-06T06:54:56.548Z,90.2
2023-03-06T06:55:56.554Z,90.2
2023-03-06T06:56:56.559Z,90.2
2023-03-06T06:57:56.564Z,90.2
2023-03-06T06:59:17.565Z,90.3
2023-03-06T06:59:56.584Z,90.5
2023-03-06T07:00:56.590Z,90.5
2023-03-06T07:01:56.584Z,90.6
2023-03-06T07:02:56.594Z,90.8
2023-03-06T07:03:56.751Z,90.9
2023-03-06T07:05:05.874Z,91.1
2023-03-06T07:05:56.633Z,91.5
2023-03-06T07:06:56.608Z,91.5
2023-03-06T07:07:56.620Z,91.4
2023-03-06T07:08:57.642Z,91.3
2023-03-06T07:09:56.670Z,91.6
2023-03-06T07:10:56.649Z,91.0
2023-03-06T07:11:56.648Z,91.4
2023-03-06T07:12:56.702Z,91.5
2023-03-06T07:13:56.669Z,91.5
2023-03-06T07:14:56.674Z,91.0
2023-03-06T07:15:56.844Z,91.1
2023-03-06T07:16:56.680Z,91.3
2023-03-06T07:17:56.687Z,91.6
2023-03-06T07:18:56.703Z,91.6
2023-03-06T07:19:56.740Z,91.2
2023-03-06T07:20:58.153Z,91.0
2023-03-06T07:21:56.714Z,90.7
2023-03-06T07:22:56.730Z,90.7
2023-03-06T07:23:56.741Z,90.4
2023-03-06T07:24:56.753Z,90.7
2023-03-06T07:25:56.747Z,90.8
2023-03-06T07:26:56.844Z,90.6
2023-03-06T07:27:56.950Z,90.3
2023-03-06T07:28:56.837Z,89.9
2023-03-06T07:29:56.783Z,90.0
2023-03-06T07:30:56.929Z,89.1
2023-03-06T07:31:56.819Z,89.2
2023-03-06T07:32:56.919Z,89.0
2023-03-06T07:33:56.816Z,88.7
2023-03-06T07:35:20.280Z,88.7
2023-03-06T07:35:57.017Z,88.7
2023-03-06T07:36:56.895Z,88.4
2023-03-06T07:37:56.863Z,88.3
2023-03-06T07:38:56.851Z,87.9
2023-03-06T07:39:56.847Z,88.0
2023-03-06T07:40:56.861Z,87.7
2023-03-06T07:41:56.863Z,87.1
2023-03-06T07:43:19.553Z,87.8
2023-03-06T07:43:56.894Z,87.1
2023-03-06T07:44:56.895Z,86.7
2023-03-06T07:45:56.909Z,86.6
2023-03-06T07:46:57.095Z,86.3
2023-03-06T07:47:56.907Z,86.5
2023-03-06T07:48:56.924Z,85.7
2023-03-06T07:49:56.912Z,85.2
2023-03-06T07:50:56.925Z,84.7
2023-03-06T07:51:56.932Z,84.4
2023-03-06T07:52:56.945Z,84.0
2023-03-06T07:53:56.960Z,83.7
2023-03-06T07:54:56.962Z,82.9
2023-03-06T07:55:56.976Z,82.6
2023-03-06T07:56:56.974Z,82.9
2023-03-06T07:57:56.975Z,82.0
2023-03-06T07:58:57.353Z,81.2
2023-03-06T07:59:57.019Z,81.4
2023-03-06T08:00:56.998Z,80.6
2023-03-06T08:01:57.009Z,80.2
2023-03-06T08:02:57.164Z,80.4
2023-03-06T08:03:57.264Z,80.0
2023-03-06T08:04:57.041Z,80.8
2023-03-06T08:05:57.034Z,81.1
2023-03-06T08:06:57.029Z,80.6
2023-03-06T08:07:57.044Z,81.4
2023-03-06T08:08:57.058Z,81.3
2023-03-06T08:09:57.059Z,81.7
2023-03-06T08:10:57.051Z,82.0
2023-03-06T08:11:57.075Z,82.1
2023-03-06T08:12:57.104Z,81.9
2023-03-06T08:13:57.076Z,82.1
2023-03-06T08:14:57.096Z,81.9
2023-03-06T08:15:57.201Z,81.1
2023-03-06T08:16:57.100Z,81.1
2023-03-06T08:17:57.113Z,81.2
2023-03-06T08:18:57.149Z,81.0
2023-03-06T08:19:57.117Z,80.1
2023-03-06T08:20:57.133Z,80.0
2023-03-06T08:21:57.136Z,80.2
2023-03-06T08:22:57.144Z,80.4
2023-03-06T08:23:57.145Z,80.3
2023-03-06T08:24:57.181Z,80.2
2023-03-06T08:25:57.168Z,80.0
2023-03-06T08:26:57.176Z,79.6
2023-03-06T08:27:57.172Z,79.2
2023-03-06T08:28:57.206Z,79.6
2023-03-06T08:29:57.182Z,79.7
2023-03-06T08:30:57.200Z,80.0
2023-03-06T08:31:57.213Z,79.9
2023-03-06T08:32:57.232Z,79.6
2023-03-06T08:33:57.248Z,79.9
2023-03-06T08:34:57.225Z,80.0
2023-03-06T08:35:57.384Z,79.7
2023-03-06T08:36:57.263Z,79.5
2023-03-06T08:37:57.257Z,79.3
2023-03-06T08:38:57.255Z,78.9
2023-03-06T08:39:57.264Z,78.6
2023-03-06T08:40:57.266Z,78.4
2023-03-06T08:41:57.297Z,78.4
2023-03-06T08:42:57.291Z,78.5
2023-03-06T08:43:57.316Z,77.7
2023-03-06T08:44:57.294Z,77.8
2023-03-06T08:45:57.434Z,78.2
2023-03-06T08:46:57.316Z,78.4
2023-03-06T08:47:57.314Z,78.2
2023-03-06T08:48:57.382Z,78.1
2023-03-06T08:50:01.013Z,77.0
2023-03-06T08:50:57.332Z,77.3
2023-03-06T08:51:57.338Z,77.3
2023-03-06T08:52:57.345Z,77.5
2023-03-06T08:53:57.418Z,77.2
2023-03-06T08:54:57.371Z,77.8
2023-03-06T08:55:57.375Z,78.0
2023-03-06T08:56:57.377Z,78.3
2023-03-06T08:57:57.389Z,77.8
2023-03-06T08:58:57.414Z,76.6
2023-03-06T08:59:57.400Z,76.9
2023-03-06T09:00:57.951Z,76.8
2023-03-06T09:01:57.670Z,76.1
2023-03-06T09:02:57.437Z,75.7
2023-03-06T09:03:57.453Z,76.1
2023-03-06T09:04:57.474Z,76.0
2023-03-06T09:05:57.450Z,75.3
2023-03-06T09:06:57.461Z,74.8
2023-03-06T09:07:57.464Z,74.2
2023-03-06T09:08:57.485Z,74.5
2023-03-06T09:09:57.472Z,74.3
2023-03-06T09:10:57.596Z,73.3
2023-03-06T09:11:57.512Z,74.4
2023-03-06T09:12:57.494Z,74.4
2023-03-06T09:13:57.496Z,75.2
2023-03-06T09:14:57.509Z,76.1
2023-03-06T09:15:57.571Z,75.9
2023-03-06T09:16:57.752Z,76.6
2023-03-06T09:17:57.756Z,76.1
2023-03-06T09:18:57.548Z,76.0
2023-03-06T09:19:57.553Z,76.4
2023-03-06T09:20:57.814Z,77.1
2023-03-06T09:21:57.561Z,76.8
2023-03-06T09:22:57.583Z,76.6
2023-03-06T09:23:57.581Z,76.3
2023-03-06T09:24:57.587Z,75.8
2023-03-06T09:25:57.603Z,75.5
2023-03-06T09:26:57.615Z,75.1
2023-03-06T09:28:12.400Z,75.0
2023-03-06T09:28:57.615Z,73.9
2023-03-06T09:29:57.615Z,74.1
2023-03-06T09:30:57.857Z,73.8
2023-03-06T09:31:57.651Z,73.8
2023-03-06T09:32:57.649Z,73.7
2023-03-06T09:33:58.669Z,72.9
2023-03-06T09:34:57.682Z,73.3
2023-03-06T09:35:57.943Z,73.3
2023-03-06T09:36:57.937Z,73.6
2023-03-06T09:37:57.701Z,72.8
2023-03-06T09:38:57.746Z,73.3
2023-03-06T09:39:57.813Z,73.8
2023-03-06T09:40:57.726Z,74.4
2023-03-06T09:41:58.081Z,73.8
2023-03-06T09:42:57.738Z,74.0
2023-03-06T09:43:57.743Z,73.8
2023-03-06T09:44:57.754Z,73.6
2023-03-06T09:45:57.911Z,73.1
2023-03-06T09:46:57.787Z,74.1
2023-03-06T09:47:57.777Z,74.4
2023-03-06T09:48:57.800Z,74.3
2023-03-06T09:49:57.810Z,74.4
2023-03-06T09:50:59.821Z,73.6
2023-03-06T09:51:57.824Z,74.2
2023-03-06T09:52:57.824Z,73.6
2023-03-06T09:53:57.842Z,74.2
2023-03-06T09:54:57.839Z,73.7
2023-03-06T09:55:57.842Z,72.9
2023-03-06T09:56:57.847Z,72.0
2023-03-06T09:57:57.862Z,72.0
2023-03-06T09:58:57.877Z,71.8
2023-03-06T09:59:57.894Z,72.0
2023-03-06T10:00:57.889Z,70.9
2023-03-06T10:01:58.034Z,70.9
2023-03-06T10:02:58.229Z,71.0
2023-03-06T10:03:57.920Z,71.2
2023-03-06T10:04:58.038Z,71.3
2023-03-06T10:05:57.923Z,70.0
2023-03-06T10:06:57.930Z,69.7
2023-03-06T10:07:57.950Z,69.8
2023-03-06T10:08:57.953Z,70.2
2023-03-06T10:09:57.947Z,70.7
2023-03-06T10:10:57.985Z,71.2
2023-03-06T10:11:57.976Z,70.3
2023-03-06T10:12:57.991Z,70.4
2023-03-06T10:13:57.978Z,70.6
2023-03-06T10:14:58.006Z,71.1
2023-03-06T10:15:58.191Z,71.0
2023-03-06T10:16:57.994Z,70.9
2023-03-06T10:17:58.022Z,70.5
2023-03-06T10:18:58.022Z,69.6
2023-03-06T10:19:58.033Z,70.2
2023-03-06T10:21:18.939Z,70.0
2023-03-06T10:21:58.057Z,69.7
2023-03-06T10:23:05.536Z,69.9
2023-03-06T10:23:58.055Z,70.0
2023-03-06T10:24:58.080Z,69.9
2023-03-06T10:25:58.068Z,69.6
2023-03-06T10:26:58.457Z,69.6
2023-03-06T10:27:58.086Z,68.9
2023-03-06T10:28:58.093Z,68.9
2023-03-06T10:30:04.489Z,69.1
2023-03-06T10:30:58.312Z,69.4
2023-03-06T10:31:58.112Z,69.2
2023-03-06T10:32:58.335Z,69.0
2023-03-06T10:33:58.159Z,68.3
2023-03-06T10:34:58.119Z,68.2
2023-03-06T10:35:58.282Z,66.1
2023-03-06T10:36:58.148Z,66.8
2023-03-06T10:37:58.179Z,67.0
2023-03-06T10:38:58.196Z,66.7
2023-03-06T10:39:58.185Z,66.9
2023-03-06T10:40:58.203Z,66.9
2023-03-06T10:41:58.201Z,65.7
2023-03-06T10:43:12.510Z,66.6
2023-03-06T10:43:58.222Z,66.7
2023-03-06T10:44:58.220Z,65.8
2023-03-06T10:45:58.411Z,65.3
2023-03-06T10:46:58.289Z,66.0
2023-03-06T10:47:58.241Z,66.0
2023-03-06T10:48:58.269Z,66.7
2023-03-06T10:49:58.263Z,66.6
2023-03-06T10:51:09.873Z,66.6
2023-03-06T10:51:58.274Z,66.9
2023-03-06T10:52:58.285Z,67.5
2023-03-06T10:53:58.314Z,67.3
2023-03-06T10:54:58.289Z,67.2
2023-03-06T10:55:58.379Z,66.7
2023-03-06T10:56:58.335Z,66.5
2023-03-06T10:57:58.332Z,66.8
2023-03-06T10:58:58.336Z,66.7
2023-03-06T10:59:58.368Z,67.0
2023-03-06T11:00:58.353Z,67.1
2023-03-06T11:01:58.608Z,66.6
2023-03-06T11:02:58.361Z,64.6
2023-03-06T11:03:58.367Z,64.9
2023-03-06T11:04:58.394Z,64.6
2023-03-06T11:05:58.546Z,65.2
2023-03-06T11:06:58.384Z,64.6
2023-03-06T11:07:58.404Z,65.5
2023-03-06T11:08:58.420Z,66.5
2023-03-06T11:09:58.489Z,66.4
2023-03-06T11:10:58.445Z,66.6
2023-03-06T11:11:58.428Z,67.1
2023-03-06T11:12:58.456Z,67.1
2023-03-06T11:13:58.470Z,67.1
2023-03-06T11:14:58.460Z,67.2
2023-03-06T11:15:58.623Z,65.7
2023-03-06T11:16:58.489Z,65.3
2023-03-06T11:17:58.508Z,66.4
2023-03-06T11:18:58.534Z,67.4
2023-03-06T11:19:58.509Z,67.0
2023-03-06T11:20:58.529Z,66.0
2023-03-06T11:21:58.533Z,67.1
2023-03-06T11:22:58.619Z,67.2
2023-03-06T11:23:58.542Z,68.1
2023-03-06T11:24:58.544Z,69.1
2023-03-06T11:25:58.577Z,68.9
2023-03-06T11:26:58.573Z,69.1
2023-03-06T11:27:58.576Z,69.3
2023-03-06T11:28:58.720Z,69.8
2023-03-06T11:29:58.592Z,69.5
2023-03-06T11:30:58.823Z,70.0
2023-03-06T11:31:58.599Z,70.8
2023-03-06T11:32:58.604Z,70.7
2023-03-06T11:33:58.614Z,69.5
2023-03-06T11:34:58.624Z,69.8
2023-03-06T11:35:58.789Z,70.0
2023-03-06T11:36:58.638Z,70.7
2023-03-06T11:37:58.636Z,69.7
2023-03-06T11:38:58.648Z,67.8
2023-03-06T11:39:58.673Z,68.2
2023-03-06T11:40:58.675Z,67.8
2023-03-06T11:41:58.677Z,68.3
2023-03-06T11:42:58.709Z,68.8
2023-03-06T11:43:58.698Z,69.0
2023-03-06T11:45:00.311Z,69.1
2023-03-06T11:45:58.860Z,67.9
2023-03-06T11:46:58.953Z,67.8
2023-03-06T11:47:58.773Z,67.4
2023-03-06T11:48:58.726Z,62.9
2023-03-06T11:49:58.734Z,63.7
2023-03-06T11:50:58.743Z,63.9
2023-03-06T11:51:58.786Z,63.7
2023-03-06T11:52:58.825Z,65.2
2023-03-06T11:53:58.808Z,65.7
2023-03-06T11:54:58.808Z,65.2
2023-03-06T11:55:58.814Z,65.6
2023-03-06T11:56:58.818Z,62.7
2023-03-06T11:57:58.814Z,59.2
2023-03-06T11:58:58.836Z,59.4
2023-03-06T11:59:58.814Z,59.8
2023-03-06T12:00:58.848Z,60.0
2023-03-06T12:01:58.896Z,60.4
2023-03-06T12:02:58.844Z,60.0
2023-03-06T12:03:58.865Z,60.2
2023-03-06T12:04:59.072Z,61.0
2023-03-06T12:05:58.881Z,61.7
2023-03-06T12:06:58.899Z,61.9
2023-03-06T12:07:58.879Z,62.0
2023-03-06T12:08:58.907Z,62.2
2023-03-06T12:09:58.926Z,61.5
2023-03-06T12:10:58.920Z,60.5
2023-03-06T12:11:58.925Z,61.2
2023-03-06T12:12:58.932Z,61.4
2023-03-06T12:14:04.219Z,60.8
2023-03-06T12:14:58.950Z,60.3
2023-03-06T12:15:58.962Z,59.4
2023-03-06T12:16:58.961Z,59.4
2023-03-06T12:17:58.970Z,60.6
2023-03-06T12:18:58.985Z,60.5
2023-03-06T12:19:59.079Z,59.8
2023-03-06T12:20:58.999Z,60.4
2023-03-06T12:21:59.013Z,59.1
2023-03-06T12:23:15.987Z,58.2
2023-03-06T12:23:59.051Z,56.5
2023-03-06T12:24:59.093Z,57.0
2023-03-06T12:25:59.065Z,55.0
2023-03-06T12:26:59.065Z,55.6
2023-03-06T12:27:59.091Z,56.2
2023-03-06T12:28:59.169Z,55.8
2023-03-06T12:29:59.112Z,54.3
2023-03-06T12:30:59.313Z,55.1
2023-03-06T12:31:59.299Z,54.4
2023-03-06T12:32:59.164Z,54.1
2023-03-06T12:33:59.123Z,54.0
2023-03-06T12:34:59.156Z,55.1
2023-03-06T12:35:59.417Z,54.0
2023-03-06T12:36:59.177Z,54.6
2023-03-06T12:37:59.214Z,55.2
2023-03-06T12:38:59.174Z,55.4
2023-03-06T12:39:59.365Z,55.1
2023-03-06T12:40:59.235Z,55.9
2023-03-06T12:41:59.205Z,56.6
2023-03-06T12:42:59.515Z,57.2
2023-03-06T12:43:59.234Z,56.3
2023-03-06T12:44:59.246Z,54.5
2023-03-06T12:45:59.476Z,55.1
2023-03-06T12:46:59.254Z,54.9
2023-03-06T12:47:59.278Z,54.0
2023-03-06T12:48:59.289Z,53.9
2023-03-06T12:49:59.276Z,54.3
2023-03-06T12:50:59.294Z,54.8
2023-03-06T12:51:59.308Z,54.7
2023-03-06T12:52:59.311Z,54.9
2023-03-06T12:53:59.334Z,54.8
2023-03-06T12:54:59.565Z,54.9
2023-03-06T12:55:59.343Z,55.2
2023-03-06T12:56:59.333Z,54.6
2023-03-06T12:57:59.344Z,55.2
2023-03-06T12:58:59.358Z,55.0
2023-03-06T12:59:59.370Z,55.1
2023-03-06T13:01:05.053Z,55.5
2023-03-06T13:01:59.367Z,55.0
2023-03-06T13:02:59.401Z,55.7
2023-03-06T13:03:59.418Z,56.2
2023-03-06T13:04:59.591Z,56.5
2023-03-06T13:05:59.416Z,55.8
2023-03-06T13:06:59.423Z,56.3
2023-03-06T13:07:59.446Z,55.2
2023-03-06T13:08:59.437Z,55.0
2023-03-06T13:09:59.460Z,55.2
2023-03-06T13:10:59.474Z,55.5
2023-03-06T13:11:59.467Z,55.0
2023-03-06T13:12:59.473Z,55.2
2023-03-06T13:13:59.494Z,55.7
2023-03-06T13:14:59.735Z,54.3
2023-03-06T13:15:59.509Z,55.2
2023-03-06T13:16:59.595Z,55.9
2023-03-06T13:17:59.731Z,56.1
2023-03-06T13:18:59.552Z,55.0
2023-03-06T13:19:59.532Z,54.4
2023-03-06T13:20:59.559Z,54.6
2023-03-06T13:21:59.549Z,54.8
2023-03-06T13:22:59.538Z,54.1
2023-03-06T13:23:59.556Z,54.9
2023-03-06T13:25:08.633Z,55.1
2023-03-06T13:25:59.714Z,54.7
2023-03-06T13:26:59.639Z,54.5
2023-03-06T13:27:59.592Z,53.6
2023-03-06T13:28:59.610Z,53.9
2023-03-06T13:29:59.627Z,53.9
2023-03-06T13:30:59.743Z,53.4
2023-03-06T13:31:59.611Z,54.0
2023-03-06T13:32:59.633Z,53.9
2023-03-06T13:33:59.666Z,54.3
2023-03-06T13:34:59.660Z,54.6
2023-03-06T13:35:59.905Z,54.1